createdAt,value
2017-09-27T00:01:14.527Z,37.33
2017-09-27T00:03:41.501Z,39.80
2017-09-27T00:06:07.699Z,38.90
2017-09-27T00:08:34.657Z,41.60
2017-09-27T00:11:01.248Z,39.43
2017-09-27T00:13:27.463Z,35.00
2017-09-27T00:15:53.667Z,45.70
2017-09-27T00:18:19.907Z,44.97
2017-09-27T00:20:46.128Z,69.90
2017-09-27T00:23:12.340Z,67.27
2017-09-27T00:25:38.617Z,91.33
2017-09-27T00:28:05.104Z,94.73
2017-09-27T00:30:31.315Z,36.93
2017-09-27T00:32:58.309Z,67.53
2017-09-27T00:35:24.535Z,49.13
2017-09-27T00:37:50.767Z,56.80
2017-09-27T00:40:17.031Z,54.53
2017-09-27T00:42:44.041Z,45.07
2017-09-27T00:45:10.271Z,49.23
2017-09-27T00:47:37.247Z,44.27
2017-09-27T00:50:03.463Z,63.40
2017-09-27T00:52:29.769Z,38.73
2017-09-27T00:54:56.051Z,40.20
2017-09-27T00:57:23.047Z,38.80
2017-09-27T00:59:49.300Z,53.93
2017-09-27T01:02:15.571Z,43.80
2017-09-27T01:04:41.775Z,52.17
2017-09-27T01:07:08.719Z,56.70
2017-09-27T01:09:36.743Z,51.03
2017-09-27T01:12:02.985Z,48.50
2017-09-27T01:14:29.207Z,40.80
2017-09-27T01:16:55.456Z,70.93
2017-09-27T01:19:21.702Z,83.50
2017-09-27T01:21:48.680Z,65.00
2017-09-27T01:24:14.991Z,129.63
2017-09-27T01:26:41.226Z,41.27
2017-09-27T01:29:07.512Z,37.27
2017-09-27T01:31:33.767Z,40.73
2017-09-27T01:34:00.755Z,66.07
2017-09-27T01:36:27.013Z,52.90
2017-09-27T01:38:53.529Z,47.20
2017-09-27T01:41:19.765Z,39.83
2017-09-27T01:43:46.012Z,36.80
2017-09-27T01:46:12.256Z,48.57
2017-09-27T01:48:39.255Z,39.13
2017-09-27T01:51:05.519Z,45.37
2017-09-27T01:53:31.759Z,38.87
2017-09-27T01:55:58.755Z,37.50
2017-09-27T01:58:25.020Z,43.40
2017-09-27T02:00:51.245Z,39.50
2017-09-27T02:03:17.486Z,41.87
2017-09-27T02:05:44.517Z,40.97
2017-09-27T02:08:10.724Z,44.30
2017-09-27T02:10:37.007Z,40.07
2017-09-27T02:13:03.947Z,39.50
2017-09-27T02:15:30.903Z,49.07
2017-09-27T02:17:57.135Z,40.03
2017-09-27T02:20:23.347Z,45.87
2017-09-27T02:22:50.287Z,41.73
2017-09-27T02:25:18.087Z,41.17
2017-09-27T02:27:44.299Z,44.67
2017-09-27T02:30:10.540Z,41.40
2017-09-27T02:32:36.988Z,38.70
2017-09-27T02:35:03.203Z,43.63
2017-09-27T02:37:29.415Z,46.10
2017-09-27T02:39:55.661Z,41.37
2017-09-27T02:42:21.901Z,38.40
2017-09-27T02:44:48.112Z,41.40
2017-09-27T02:47:14.352Z,42.93
2017-09-27T02:49:40.562Z,46.87
2017-09-27T02:52:06.783Z,36.97
2017-09-27T02:54:33.072Z,39.03
2017-09-27T02:56:59.296Z,39.23
2017-09-27T02:59:25.495Z,39.00
2017-09-27T03:01:51.937Z,43.10
2017-09-27T03:04:18.200Z,40.80
2017-09-27T03:06:45.192Z,42.27
2017-09-27T03:09:11.461Z,38.93
2017-09-27T03:11:37.680Z,39.10
2017-09-27T03:14:03.903Z,42.63
2017-09-27T03:16:30.163Z,40.57
2017-09-27T03:18:57.140Z,40.53
2017-09-27T03:21:23.387Z,39.03
2017-09-27T03:23:49.750Z,41.30
2017-09-27T03:26:15.968Z,39.50
2017-09-27T03:28:42.175Z,37.43
2017-09-27T03:31:08.412Z,40.80
2017-09-27T03:33:34.639Z,41.10
2017-09-27T03:36:00.855Z,38.80
2017-09-27T03:38:27.099Z,39.37
2017-09-27T03:40:53.303Z,38.77
2017-09-27T03:43:19.512Z,40.10
2017-09-27T03:45:45.769Z,38.60
2017-09-27T03:48:11.983Z,40.70
2017-09-27T03:50:38.200Z,42.23
2017-09-27T03:53:04.443Z,39.80
2017-09-27T03:55:30.664Z,38.17
2017-09-27T03:57:56.881Z,41.90
2017-09-27T04:00:23.565Z,41.43
2017-09-27T04:02:49.799Z,41.77
2017-09-27T04:05:16.019Z,38.20
2017-09-27T04:07:42.291Z,38.33
2017-09-27T04:10:09.253Z,39.23
2017-09-27T04:12:35.467Z,39.20
2017-09-27T04:15:02.484Z,37.87
2017-09-27T04:17:28.699Z,38.00
2017-09-27T04:19:54.914Z,38.93
2017-09-27T04:22:21.154Z,36.40
2017-09-27T04:24:47.370Z,37.60
2017-09-27T04:27:13.582Z,37.57
2017-09-27T04:29:39.826Z,38.20
2017-09-27T04:32:06.048Z,36.27
2017-09-27T04:34:32.258Z,39.17
2017-09-27T04:36:58.707Z,37.47
2017-09-27T04:39:24.917Z,39.60
2017-09-27T04:41:51.163Z,37.23
2017-09-27T04:44:17.799Z,38.13
2017-09-27T04:46:44.028Z,37.97
2017-09-27T04:49:10.241Z,38.03
2017-09-27T04:51:36.492Z,39.33
2017-09-27T04:54:02.699Z,39.47
2017-09-27T04:56:28.915Z,37.37
2017-09-27T04:58:55.156Z,38.87
2017-09-27T05:01:21.381Z,38.50
2017-09-27T05:03:47.622Z,40.03
2017-09-27T05:06:13.855Z,38.43
2017-09-27T05:08:40.073Z,38.27
2017-09-27T05:11:06.315Z,38.77
2017-09-27T05:13:32.528Z,38.83
2017-09-27T05:15:58.737Z,36.03
2017-09-27T05:18:25.179Z,36.07
2017-09-27T05:20:51.396Z,37.50
2017-09-27T05:23:17.612Z,37.90
2017-09-27T05:25:44.903Z,39.23
2017-09-27T05:28:11.116Z,37.60
2017-09-27T05:30:37.324Z,36.80
2017-09-27T05:33:04.304Z,36.93
2017-09-27T05:35:30.520Z,37.37
2017-09-27T05:37:56.746Z,39.10
2017-09-27T05:40:22.971Z,38.27
2017-09-27T05:42:49.188Z,35.47
2017-09-27T05:45:15.943Z,39.07
2017-09-27T05:47:42.182Z,38.17
2017-09-27T05:50:08.378Z,38.33
2017-09-27T05:52:35.375Z,35.93
2017-09-27T05:55:01.613Z,37.50
2017-09-27T05:57:27.846Z,38.63
2017-09-27T05:59:54.177Z,38.80
2017-09-27T06:02:20.383Z,38.60
2017-09-27T06:04:46.673Z,45.30
2017-09-27T06:07:12.901Z,40.50
2017-09-27T06:09:40.324Z,37.03
2017-09-27T06:12:06.672Z,39.00
2017-09-27T06:14:33.618Z,40.60
2017-09-27T06:17:00.574Z,44.00
2017-09-27T06:19:26.788Z,39.80
2017-09-27T06:21:53.732Z,39.53
2017-09-27T06:24:20.808Z,39.17
2017-09-27T06:26:47.003Z,38.13
2017-09-27T06:29:13.964Z,39.43
2017-09-27T06:31:40.928Z,37.20
2017-09-27T06:34:07.178Z,37.30
2017-09-27T06:36:34.123Z,37.00
2017-09-27T06:39:01.095Z,38.17
2017-09-27T06:41:27.297Z,38.20
2017-09-27T06:43:53.492Z,41.80
2017-09-27T06:46:19.769Z,39.60
2017-09-27T06:48:45.996Z,40.47
2017-09-27T06:51:12.195Z,40.07
2017-09-27T06:53:38.569Z,36.87
2017-09-27T06:56:04.789Z,41.20
2017-09-27T06:58:31.319Z,38.03
2017-09-27T07:00:57.734Z,39.97
2017-09-27T07:03:23.939Z,39.10
2017-09-27T07:05:51.393Z,38.17
2017-09-27T07:08:19.599Z,43.23
2017-09-27T07:10:45.888Z,45.60
2017-09-27T07:13:12.511Z,42.53
2017-09-27T07:15:41.646Z,42.10
2017-09-27T07:18:09.803Z,48.40
2017-09-27T07:20:36.821Z,86.07
2017-09-27T07:23:04.248Z,69.03
2017-09-27T07:25:30.459Z,80.90
2017-09-27T07:27:56.669Z,55.37
2017-09-27T07:30:22.910Z,59.10
2017-09-27T07:32:49.240Z,47.57
2017-09-27T07:35:15.482Z,45.40
2017-09-27T07:37:41.677Z,47.37
2017-09-27T07:40:08.116Z,42.67
2017-09-27T07:42:34.318Z,39.50
2017-09-27T07:45:01.306Z,46.87
2017-09-27T07:47:27.544Z,44.80
2017-09-27T07:49:53.997Z,42.83
2017-09-27T07:52:20.253Z,45.60
2017-09-27T07:54:47.241Z,44.10
2017-09-27T07:57:13.492Z,45.50
2017-09-27T07:59:39.776Z,44.10
2017-09-27T08:02:06.352Z,44.67
2017-09-27T08:04:33.027Z,40.27
2017-09-27T08:07:00.266Z,42.73
2017-09-27T08:09:27.588Z,45.47
2017-09-27T08:11:53.889Z,41.60
2017-09-27T08:14:20.333Z,42.53
2017-09-27T08:16:47.384Z,45.13
2017-09-27T08:19:13.612Z,43.97
2017-09-27T08:21:39.851Z,44.17
2017-09-27T08:24:06.421Z,42.43
2017-09-27T08:26:33.392Z,43.60
2017-09-27T08:28:59.626Z,40.70
2017-09-27T08:31:25.871Z,39.87
2017-09-27T08:33:52.086Z,41.10
2017-09-27T08:36:18.313Z,40.87
2017-09-27T08:38:44.669Z,42.97
2017-09-27T08:41:11.205Z,42.57
2017-09-27T08:43:37.637Z,41.07
2017-09-27T08:46:03.890Z,45.10
2017-09-27T08:48:30.459Z,44.00
2017-09-27T08:50:56.912Z,44.20
2017-09-27T08:53:23.147Z,41.90
2017-09-27T08:55:49.376Z,38.97
2017-09-27T08:58:15.629Z,37.53
2017-09-27T09:00:41.896Z,40.97
2017-09-27T09:03:08.900Z,36.50
2017-09-27T09:05:35.409Z,37.07
2017-09-27T09:08:02.838Z,38.73
2017-09-27T09:10:29.128Z,34.47
2017-09-27T09:12:55.341Z,35.90
2017-09-27T09:15:21.556Z,37.87
2017-09-27T09:17:47.797Z,40.90
2017-09-27T09:20:14.041Z,40.13
2017-09-27T09:22:40.260Z,38.50
2017-09-27T09:25:07.175Z,37.13
2017-09-27T09:27:33.412Z,37.90
2017-09-27T09:29:59.617Z,37.67
2017-09-27T09:32:25.863Z,35.47
2017-09-27T09:34:52.333Z,35.03
2017-09-27T09:37:18.812Z,36.27
2017-09-27T09:39:45.284Z,37.57
2017-09-27T09:42:11.679Z,45.83
2017-09-27T09:44:38.163Z,33.77
2017-09-27T09:47:05.385Z,37.20
2017-09-27T09:49:32.900Z,33.90
2017-09-27T09:52:00.271Z,34.77
2017-09-27T09:54:27.488Z,33.07
2017-09-27T09:56:53.705Z,33.97
2017-09-27T09:59:20.115Z,35.53
2017-09-27T10:01:46.323Z,32.47
2017-09-27T10:04:12.536Z,34.13
2017-09-27T10:06:39.192Z,35.07
2017-09-27T10:09:05.387Z,37.03
2017-09-27T10:11:32.332Z,35.57
2017-09-27T10:13:59.400Z,32.80
2017-09-27T10:16:26.823Z,35.20
2017-09-27T10:18:53.057Z,34.40
2017-09-27T10:21:20.103Z,33.80
2017-09-27T10:23:46.569Z,33.20
2017-09-27T10:26:12.855Z,37.80
2017-09-27T10:28:39.175Z,54.60
2017-09-27T10:31:05.390Z,134.63
2017-09-27T10:33:32.072Z,41.50
2017-09-27T10:35:59.202Z,47.47
2017-09-27T10:38:25.441Z,53.73
2017-09-27T10:40:51.937Z,37.50
2017-09-27T10:43:18.512Z,46.27
2017-09-27T10:45:45.457Z,37.70
2017-09-27T10:48:12.411Z,38.50
2017-09-27T10:50:39.449Z,33.50
2017-09-27T10:53:06.662Z,35.80
2017-09-27T10:55:32.885Z,32.50
2017-09-27T10:57:59.132Z,48.70
2017-09-27T11:00:26.358Z,47.10
2017-09-27T11:02:53.704Z,44.17
2017-09-27T11:05:20.772Z,48.23
2017-09-27T11:07:47.477Z,47.00
2017-09-27T11:10:13.765Z,53.93
2017-09-27T11:12:40.797Z,36.87
2017-09-27T11:15:07.223Z,34.57
2017-09-27T11:17:33.439Z,33.33
2017-09-27T11:19:59.670Z,33.23
2017-09-27T11:22:25.876Z,35.00
2017-09-27T11:24:52.335Z,33.43
2017-09-27T11:27:18.546Z,31.90
2017-09-27T11:29:44.736Z,35.63
2017-09-27T11:32:11.726Z,30.27
2017-09-27T11:34:37.938Z,32.63
2017-09-27T11:37:04.139Z,31.60
2017-09-27T11:39:31.392Z,30.67
2017-09-27T11:41:58.380Z,37.77
2017-09-27T11:44:24.835Z,30.23
2017-09-27T11:46:51.067Z,29.23
2017-09-27T11:49:17.277Z,28.53
2017-09-27T11:51:43.480Z,31.63
2017-09-27T11:54:10.032Z,30.53
2017-09-27T11:56:36.247Z,27.93
2017-09-27T11:59:02.496Z,26.47
2017-09-27T12:01:28.813Z,30.10
2017-09-27T12:03:55.023Z,27.47
2017-09-27T12:06:21.250Z,32.50
2017-09-27T12:08:47.492Z,27.00
2017-09-27T12:11:13.712Z,37.00
2017-09-27T12:13:39.916Z,26.07
2017-09-27T12:16:06.936Z,25.87
2017-09-27T12:18:33.146Z,25.60
2017-09-27T12:20:59.359Z,26.27
2017-09-27T12:23:25.676Z,27.17
2017-09-27T12:25:51.901Z,25.80
2017-09-27T12:28:18.116Z,25.80
2017-09-27T12:30:44.358Z,26.10
2017-09-27T12:33:10.556Z,25.90
2017-09-27T12:35:37.508Z,26.20
2017-09-27T12:38:04.588Z,25.43
2017-09-27T12:40:30.816Z,24.17
2017-09-27T12:42:57.040Z,23.20
2017-09-27T12:45:23.276Z,24.77
2017-09-27T12:47:49.499Z,23.20
2017-09-27T12:50:15.725Z,24.03
2017-09-27T12:52:41.948Z,23.10
2017-09-27T12:55:08.174Z,33.43
2017-09-27T12:57:34.417Z,26.03
2017-09-27T13:00:00.632Z,42.13
2017-09-27T13:02:26.839Z,38.03
2017-09-27T13:04:53.060Z,54.60
2017-09-27T13:07:20.000Z,51.17
2017-09-27T13:09:46.956Z,41.20
2017-09-27T13:12:13.200Z,33.67
2017-09-27T13:14:39.400Z,31.00
2017-09-27T13:17:06.347Z,32.67
2017-09-27T13:19:33.328Z,31.27
2017-09-27T13:21:59.537Z,31.33
2017-09-27T13:24:25.736Z,31.17
2017-09-27T13:26:52.835Z,31.73
2017-09-27T13:29:19.045Z,30.27
2017-09-27T13:31:45.302Z,32.17
2017-09-27T13:34:11.532Z,29.80
2017-09-27T13:36:37.756Z,28.03
2017-09-27T13:39:04.024Z,26.63
2017-09-27T13:41:31.000Z,29.80
2017-09-27T13:43:57.240Z,30.70
2017-09-27T13:46:23.494Z,41.50
2017-09-27T13:48:49.686Z,39.17
2017-09-27T13:51:15.935Z,36.90
2017-09-27T13:53:42.152Z,42.30
2017-09-27T13:56:08.388Z,54.20
2017-09-27T13:58:34.616Z,71.23
2017-09-27T14:01:00.868Z,35.33
2017-09-27T14:03:27.883Z,56.87
2017-09-27T14:05:54.132Z,49.37
2017-09-27T14:08:20.644Z,53.13
2017-09-27T14:10:47.649Z,35.53
2017-09-27T14:13:15.029Z,34.53
2017-09-27T14:15:41.277Z,37.27
2017-09-27T14:18:07.504Z,39.40
2017-09-27T14:20:33.945Z,50.17
2017-09-27T14:23:00.169Z,44.90
2017-09-27T14:25:26.461Z,55.07
2017-09-27T14:27:53.871Z,43.50
2017-09-27T14:30:20.122Z,41.60
2017-09-27T14:32:46.358Z,32.37
2017-09-27T14:35:13.417Z,33.80
2017-09-27T14:37:40.409Z,38.53
2017-09-27T14:40:06.646Z,40.00
2017-09-27T14:42:33.301Z,40.70
2017-09-27T14:44:59.538Z,38.47
2017-09-27T14:47:26.544Z,33.87
2017-09-27T14:49:53.112Z,35.00
2017-09-27T14:52:19.344Z,32.00
2017-09-27T14:54:45.608Z,38.60
2017-09-27T14:57:12.622Z,50.60
2017-09-27T14:59:38.868Z,50.00
2017-09-27T15:02:05.813Z,100.23
2017-09-27T15:04:32.991Z,70.13
2017-09-27T15:06:59.197Z,69.70
2017-09-27T15:09:26.166Z,51.90
2017-09-27T15:11:52.364Z,41.30
2017-09-27T15:14:19.342Z,47.80
2017-09-27T15:16:45.673Z,41.67
2017-09-27T15:19:11.903Z,40.53
2017-09-27T15:21:38.144Z,38.50
2017-09-27T15:24:04.593Z,37.77
2017-09-27T15:26:30.824Z,41.57
2017-09-27T15:28:57.042Z,35.77
2017-09-27T15:31:23.273Z,35.23
2017-09-27T15:33:49.870Z,39.40
2017-09-27T15:36:16.098Z,42.87
2017-09-27T15:38:42.669Z,63.57
2017-09-27T15:41:08.880Z,73.47
2017-09-27T15:43:35.092Z,64.37
2017-09-27T15:46:01.303Z,67.83
2017-09-27T15:48:28.263Z,47.77
2017-09-27T15:50:54.855Z,55.20
2017-09-27T15:53:21.311Z,47.10
2017-09-27T15:55:47.543Z,43.30
2017-09-27T15:58:14.745Z,36.67
2017-09-27T16:00:40.948Z,40.80
2017-09-27T16:03:07.426Z,39.63
2017-09-27T16:05:33.774Z,38.00
2017-09-27T16:08:00.043Z,40.33
2017-09-27T16:10:26.371Z,41.03
2017-09-27T16:12:52.615Z,39.20
2017-09-27T16:15:18.828Z,37.20
2017-09-27T16:17:45.043Z,39.97
2017-09-27T16:20:11.428Z,39.10
2017-09-27T16:22:38.461Z,42.03
2017-09-27T16:25:04.668Z,41.10
2017-09-27T16:27:31.328Z,45.30
2017-09-27T16:29:57.539Z,57.73
2017-09-27T16:32:24.088Z,54.50
2017-09-27T16:34:50.643Z,116.77
2017-09-27T16:37:16.877Z,52.90
2017-09-27T16:39:43.583Z,74.20
2017-09-27T16:42:10.107Z,62.50
2017-09-27T16:44:36.326Z,58.60
2017-09-27T16:47:02.951Z,47.10
2017-09-27T16:49:29.185Z,49.10
2017-09-27T16:51:55.421Z,43.30
2017-09-27T16:54:22.096Z,43.43
2017-09-27T16:56:48.299Z,45.67
2017-09-27T16:59:14.514Z,45.83
2017-09-27T17:01:40.963Z,44.50
2017-09-27T17:04:07.618Z,45.00
2017-09-27T17:06:33.833Z,43.83
2017-09-27T17:09:00.080Z,43.33
2017-09-27T17:11:26.575Z,43.60
2017-09-27T17:13:53.148Z,43.67
2017-09-27T17:16:19.371Z,49.93
2017-09-27T17:18:45.567Z,48.87
2017-09-27T17:21:11.820Z,49.70
2017-09-27T17:23:38.126Z,48.33
2017-09-27T17:26:04.593Z,50.07
2017-09-27T17:28:30.833Z,51.90
2017-09-27T17:30:57.079Z,58.80
2017-09-27T17:33:24.040Z,49.67
2017-09-27T17:35:50.411Z,46.10
2017-09-27T17:38:17.667Z,46.93
2017-09-27T17:40:43.884Z,47.20
2017-09-27T17:43:10.137Z,45.27
2017-09-27T17:45:36.372Z,47.83
2017-09-27T17:48:02.597Z,46.90
2017-09-27T17:50:29.947Z,49.70
2017-09-27T17:52:56.168Z,48.87
2017-09-27T17:55:22.701Z,47.70
2017-09-27T17:57:48.993Z,47.07
2017-09-27T18:00:15.245Z,52.17
2017-09-27T18:02:41.894Z,51.77
2017-09-27T18:05:10.997Z,58.13
2017-09-27T18:07:55.532Z,56.10
2017-09-27T18:10:29.123Z,46.67
2017-09-27T18:13:01.763Z,54.23
2017-09-27T18:15:34.255Z,63.73
2017-09-27T18:18:04.251Z,85.20
2017-09-27T18:20:31.244Z,76.37
2017-09-27T18:22:57.481Z,90.07
2017-09-27T18:25:24.031Z,78.13
2017-09-27T18:27:50.404Z,69.07
2017-09-27T18:30:16.691Z,97.90
2017-09-27T18:32:43.134Z,86.20
2017-09-27T18:35:09.360Z,77.53
2017-09-27T18:37:35.602Z,65.87
2017-09-27T18:40:03.086Z,58.20
2017-09-27T18:42:30.065Z,58.20
2017-09-27T18:44:57.110Z,56.60
2017-09-27T18:47:23.912Z,59.03
2017-09-27T18:49:50.867Z,80.23
2017-09-27T18:52:18.369Z,93.03
2017-09-27T18:54:47.029Z,59.20
2017-09-27T18:57:15.154Z,62.83
2017-09-27T18:59:42.815Z,72.73
2017-09-27T19:02:10.135Z,54.07
2017-09-27T19:04:38.539Z,64.53
2017-09-27T19:07:07.472Z,66.23
2017-09-27T19:09:35.714Z,56.17
2017-09-27T19:12:03.210Z,77.43
2017-09-27T19:14:31.056Z,57.33
2017-09-27T19:16:58.508Z,54.40
2017-09-27T19:19:25.951Z,54.20
2017-09-27T19:21:53.867Z,52.63
2017-09-27T19:24:22.104Z,68.10
2017-09-27T19:26:49.591Z,61.43
2017-09-27T19:29:18.301Z,55.97
2017-09-27T19:31:45.405Z,55.60
2017-09-27T19:34:12.832Z,56.90
2017-09-27T19:36:41.457Z,72.37
2017-09-27T19:39:09.612Z,53.80
2017-09-27T19:41:37.039Z,66.00
2017-09-27T19:44:04.549Z,55.67
2017-09-27T19:46:31.886Z,54.87
2017-09-27T19:48:59.334Z,54.67
2017-09-27T19:51:26.910Z,57.63
2017-09-27T19:53:55.345Z,75.93
2017-09-27T19:56:23.706Z,160.07
2017-09-27T19:58:51.150Z,132.70
2017-09-27T20:01:20.705Z,57.40
2017-09-27T20:03:48.956Z,123.23
2017-09-27T20:06:16.779Z,121.73
2017-09-27T20:08:44.183Z,54.07
2017-09-27T20:11:11.398Z,78.87
2017-09-27T20:13:38.817Z,94.43
2017-09-27T20:16:06.355Z,60.13
2017-09-27T20:18:34.689Z,55.20
2017-09-27T20:21:03.141Z,60.80
2017-09-27T20:23:30.581Z,63.80
2017-09-27T20:25:58.187Z,98.00
2017-09-27T20:28:26.478Z,92.93
2017-09-27T20:30:55.368Z,142.33
2017-09-27T20:33:23.314Z,71.20
2017-09-27T20:35:51.036Z,56.23
2017-09-27T20:38:18.546Z,70.07
2017-09-27T20:40:50.516Z,103.10
2017-09-27T20:43:20.609Z,126.23
2017-09-27T20:45:49.403Z,71.70
2017-09-27T20:48:17.413Z,94.27
2017-09-27T20:50:45.517Z,85.10
2017-09-27T20:53:14.428Z,98.50
2017-09-27T20:55:42.808Z,85.77
2017-09-27T20:58:10.192Z,94.70
2017-09-27T21:00:39.413Z,75.90
2017-09-27T21:03:11.133Z,189.17
2017-09-27T21:05:38.913Z,83.37
2017-09-27T21:08:06.793Z,61.23
2017-09-27T21:10:34.374Z,56.33
2017-09-27T21:13:00.725Z,95.37
2017-09-27T21:15:27.773Z,92.67
2017-09-27T21:17:55.143Z,64.40
2017-09-27T21:20:24.908Z,99.20
2017-09-27T21:22:52.796Z,73.30
2017-09-27T21:25:24.830Z,124.30
2017-09-27T21:27:53.519Z,103.63
2017-09-27T21:30:21.309Z,105.43
2017-09-27T21:32:49.146Z,73.30
2017-09-27T21:35:18.262Z,129.90
2017-09-27T21:37:45.756Z,104.43
2017-09-27T21:40:14.433Z,98.90
2017-09-27T21:42:42.909Z,94.77
2017-09-27T21:45:13.548Z,62.70
2017-09-27T21:47:41.076Z,69.90
2017-09-27T21:50:09.440Z,84.77
2017-09-27T21:52:37.101Z,45.80
2017-09-27T21:55:06.565Z,96.37
2017-09-27T21:57:34.782Z,91.03
2017-09-27T22:00:02.335Z,89.07
2017-09-27T22:02:30.675Z,41.47
2017-09-27T22:04:59.956Z,49.97
2017-09-27T22:07:29.725Z,62.83
2017-09-27T22:09:57.231Z,72.83
2017-09-27T22:12:24.994Z,54.50
2017-09-27T22:14:52.654Z,52.57
2017-09-27T22:17:23.153Z,57.17
2017-09-27T22:19:51.861Z,72.03
2017-09-27T22:22:19.648Z,51.57
2017-09-27T22:24:48.097Z,44.10
2017-09-27T22:27:16.668Z,47.13
2017-09-27T22:29:44.197Z,38.33
2017-09-27T22:32:12.538Z,54.53
2017-09-27T22:34:42.204Z,250.53
2017-09-27T22:37:09.746Z,228.73
2017-09-27T22:39:37.257Z,39.07
2017-09-27T22:42:04.619Z,69.13
2017-09-27T22:44:32.942Z,78.83
2017-09-27T22:47:03.199Z,49.57
2017-09-27T22:49:34.849Z,57.60
2017-09-27T22:52:02.298Z,39.77
2017-09-27T22:54:30.516Z,57.93
2017-09-27T22:56:58.127Z,60.53
2017-09-27T22:59:26.461Z,68.50
2017-09-27T23:01:55.907Z,52.13
2017-09-27T23:04:23.606Z,52.30
2017-09-27T23:06:51.256Z,64.73
2017-09-27T23:09:19.568Z,96.93
2017-09-27T23:11:53.491Z,62.50
2017-09-27T23:14:22.007Z,78.53
2017-09-27T23:16:49.486Z,46.47
2017-09-27T23:19:17.357Z,39.17
2017-09-27T23:21:46.348Z,50.63
2017-09-27T23:24:13.013Z,46.30
2017-09-27T23:26:41.704Z,47.90
2017-09-27T23:29:10.583Z,63.47
2017-09-27T23:31:44.504Z,46.53
2017-09-27T23:34:12.671Z,39.97
2017-09-27T23:36:48.982Z,69.40
2017-09-27T23:39:23.347Z,67.87
2017-09-27T23:41:52.506Z,62.23
2017-09-27T23:44:19.992Z,40.13
2017-09-27T23:46:48.225Z,39.60
2017-09-27T23:49:15.808Z,43.33
2017-09-27T23:51:43.400Z,37.70
2017-09-27T23:56:50.559Z,47.50
2017-09-27T23:59:18.745Z,36.50
